Time;durP1;ratioP1;P1;durP2;ratioP2;P2;SDS_P1;SDS_P2;PMS_P1;PMS_P2;Temp;Humidity;BMP_temperature;BMP_pressure;BME280_temperature;BME280_humidity;BME280_pressure;Samples;Min_cycle;Max_cycle;Signal;HPM_P1;HPM_P2
2023/09/27 00:00:47;;;;;;;3.75;3.20;;;;;;;;;;5072897;28;20131;-29
2023/09/27 00:03:15;;;;;;;4.95;3.33;;;19.70;87.80;;;;;;5072067;28;20135;-28
2023/09/27 00:05:42;;;;;;;5.13;3.25;;;19.70;87.80;;;;;;5068638;28;20468;-28
2023/09/27 00:08:11;;;;;;;4.40;3.60;;;;;;;;;;5072301;28;20124;-30
2023/09/27 00:10:37;;;;;;;3.53;2.92;;;19.80;71.80;;;;;;5072535;28;20131;-28
2023/09/27 00:13:04;;;;;;;4.18;3.22;;;19.70;87.80;;;;;;5072676;28;20498;-28
2023/09/27 00:15:31;;;;;;;3.55;3.13;;;;;;;;;;5072596;28;20135;-28
2023/09/27 00:17:58;;;;;;;3.67;3.22;;;20.90;88.10;;;;;;5072192;28;20048;-28
2023/09/27 00:20:26;;;;;;;5.82;3.50;;;19.90;87.90;;;;;;5061531;28;20106;-28
2023/09/27 00:22:54;;;;;;;4.10;3.50;;;;;;;;;;5052456;28;20588;-30
2023/09/27 00:25:21;;;;;;;4.07;3.15;;;18.60;87.00;;;;;;5052517;28;20049;-27
2023/09/27 00:27:48;;;;;;;4.95;3.88;;;20.30;82.90;;;;;;5059047;28;20557;-28
2023/09/27 00:30:15;;;;;;;3.80;3.47;;;19.90;88.00;;;;;;5072042;28;20080;-29
2023/09/27 00:32:42;;;;;;;4.00;3.50;;;;;;;;;;5072218;28;20105;-29
2023/09/27 00:35:14;;;;;;;4.80;3.30;;;;;;;;;;5072386;28;20049;-28
2023/09/27 00:37:42;;;;;;;4.35;3.38;;;19.70;68.30;;;;;;5071637;28;20045;-28
2023/09/27 00:40:10;;;;;;;3.70;3.28;;;19.80;87.50;;;;;;5072055;28;20136;-28
2023/09/27 00:42:38;;;;;;;4.57;3.50;;;19.60;72.00;;;;;;5070444;28;20056;-28
2023/09/27 00:45:06;;;;;;;4.30;3.50;;;19.70;87.80;;;;;;5071760;28;20048;-29
2023/09/27 00:47:33;;;;;;;5.32;3.80;;;;;;;;;;5072032;28;20121;-29
2023/09/27 00:50:00;;;;;;;4.35;3.70;;;;;;;;;;5072033;28;20136;-29
2023/09/27 00:52:26;;;;;;;3.97;3.58;;;19.60;81.20;;;;;;5072020;28;20131;-29
2023/09/27 00:54:54;;;;;;;5.10;3.50;;;20.20;83.10;;;;;;5071341;28;20127;-29
2023/09/27 00:57:22;;;;;;;4.05;3.47;;;19.60;87.70;;;;;;5052005;28;20132;-28
2023/09/27 00:59:49;;;;;;;4.03;3.40;;;;;;;;;;5051825;28;20458;-29
2023/09/27 01:02:15;;;;;;;4.35;3.60;;;19.20;87.50;;;;;;5052196;28;20128;-29
2023/09/27 01:04:43;;;;;;;3.95;3.50;;;20.00;87.90;;;;;;5059614;28;20140;-28
2023/09/27 01:07:10;;;;;;;4.00;3.60;;;19.70;87.50;;;;;;5071850;28;20070;-29
2023/09/27 01:09:37;;;;;;;4.03;3.63;;;;;;;;;;5070813;28;20124;-28
2023/09/27 01:12:06;;;;;;;4.03;3.63;;;19.60;68.30;;;;;;5071753;28;20421;-29
2023/09/27 01:14:32;;;;;;;4.22;3.75;;;19.50;87.80;;;;;;5071638;28;20556;-28
2023/09/27 01:17:08;;;;;;;4.45;4.05;;;18.70;70.10;;;;;;5071779;28;20131;-29
2023/09/27 01:19:35;;;;;;;4.93;3.55;;;;;;;;;;5071298;28;20127;-31
2023/09/27 01:22:02;;;;;;;4.10;3.70;;;19.50;87.70;;;;;;5070598;28;20136;-29
2023/09/27 01:24:30;;;;;;;4.20;3.80;;;19.10;87.50;;;;;;5050353;28;20478;-28
2023/09/27 01:26:57;;;;;;;4.15;3.75;;;18.60;86.90;;;;;;5052488;28;20461;-28
2023/09/27 01:29:24;;;;;;;4.43;3.67;;;;;;;;;;5051250;28;20132;-32
2023/09/27 01:31:50;;;;;;;4.45;3.83;;;19.40;87.60;;;;;;5051562;28;20136;-29
2023/09/27 01:34:17;;;;;;;4.03;3.63;;;;;;;;;;5051550;28;20045;-29
2023/09/27 01:36:45;;;;;;;4.15;3.75;;;19.70;87.50;;;;;;5059649;28;20078;-28
2023/09/27 01:39:12;;;;;;;4.15;3.75;;;;;;;;;;5071036;28;20486;-30
2023/09/27 01:41:40;;;;;;;4.40;4.00;;;19.70;87.50;;;;;;5071600;28;20045;-28
2023/09/27 01:44:07;;;;;;;4.80;3.78;;;19.50;87.80;;;;;;5071317;28;20436;-30
2023/09/27 01:46:34;;;;;;;4.10;3.70;;;;;;;;;;5071571;28;20131;-29
2023/09/27 01:49:01;;;;;;;5.90;3.92;;;20.00;87.60;;;;;;5071054;28;20076;-29
2023/09/27 01:51:28;;;;;;;4.22;3.55;;;;;;;;;;5070942;28;20123;-29
2023/09/27 01:53:55;;;;;;;4.43;4.03;;;19.20;87.80;;;;;;5072426;28;20147;-28
2023/09/27 01:56:22;;;;;;;4.10;3.70;;;;;;;;;;5075288;28;20135;-28
2023/09/27 01:58:50;;;;;;;4.53;4.03;;;18.30;86.60;;;;;;5075034;28;20127;-29
2023/09/27 02:01:17;;;;;;;4.20;3.80;;;20.00;87.50;;;;;;5075062;28;20127;-28
2023/09/27 02:03:44;;;;;;;4.75;4.20;;;19.70;73.80;;;;;;5069674;28;20057;-28
2023/09/27 02:06:11;;;;;;;4.18;3.78;;;19.50;87.60;;;;;;5071568;28;20079;-29
2023/09/27 02:08:38;;;;;;;4.90;3.95;;;20.30;88.00;;;;;;5074699;28;20051;-29
2023/09/27 02:11:05;;;;;;;5.15;4.13;;;;;;;;;;5074790;28;20127;-29
2023/09/27 02:13:31;;;;;;;4.65;4.25;;;19.40;87.30;;;;;;5075133;28;20127;-28
2023/09/27 02:16:00;;;;;;;4.55;4.03;;;18.60;86.90;;;;;;5074685;28;20087;-30
2023/09/27 02:18:27;;;;;;;4.38;3.70;;;;;;;;;;5060964;28;20136;-31
2023/09/27 02:20:53;;;;;;;4.43;3.80;;;19.90;87.90;;;;;;5054792;28;20137;-29
2023/09/27 02:23:21;;;;;;;4.40;4.00;;;;;;;;;;5054824;28;20048;-28
2023/09/27 02:25:57;;;;;;;5.20;4.00;;;19.90;87.50;;;;;;5054763;28;20136;-29
2023/09/27 02:28:24;;;;;;;4.70;4.20;;;19.70;70.70;;;;;;5054297;28;20510;-28
2023/09/27 02:30:50;;;;;;;4.35;3.85;;;20.60;88.30;;;;;;5056201;28;20051;-28
2023/09/27 02:33:20;;;;;;;4.93;4.43;;;19.50;68.20;;;;;;5074389;28;20123;-30
2023/09/27 02:35:46;;;;;;;5.22;4.35;;;19.30;87.30;;;;;;5060094;28;20051;-29
2023/09/27 02:38:14;;;;;;;6.00;4.63;;;;;;;;;;5073623;28;20147;-28
2023/09/27 02:40:41;;;;;;;5.85;4.47;;;19.80;73.40;;;;;;5074277;28;20060;-28
2023/09/27 02:43:08;;;;;;;4.05;3.65;;;19.60;87.60;;;;;;5074331;28;20448;-28
2023/09/27 02:45:35;;;;;;;5.10;4.40;;;20.80;88.10;;;;;;5073617;28;20084;-28
2023/09/27 02:48:02;;;;;;;5.57;4.75;;;18.90;73.60;;;;;;5074168;28;20131;-29
2023/09/27 02:50:30;;;;;;;5.18;4.10;;;19.80;87.50;;;;;;5074045;28;20136;-27
2023/09/27 02:52:57;;;;;;;5.47;4.70;;;19.80;87.80;;;;;;5074596;28;20131;-28
2023/09/27 02:55:25;;;;;;;5.50;4.57;;;18.30;78.70;;;;;;5074163;28;20147;-28
2023/09/27 02:57:52;;;;;;;5.28;4.53;;;19.00;71.40;;;;;;5073976;28;20128;-29
2023/09/27 03:00:19;;;;;;;5.22;4.43;;;19.40;87.60;;;;;;5054706;28;20127;-28
2023/09/27 03:02:46;;;;;;;5.75;4.40;;;;;;;;;;5053849;28;20053;-32
2023/09/27 03:05:14;;;;;;;5.10;4.32;;;20.60;88.00;;;;;;5065909;28;20131;-27
2023/09/27 03:07:44;;;;;;;5.93;4.45;;;19.70;87.30;;;;;;5073833;28;20048;-27
2023/09/27 03:10:11;;;;;;;5.35;4.68;;;19.20;87.10;;;;;;5074070;28;20496;-28
2023/09/27 03:12:39;;;;;;;6.32;4.90;;;19.20;87.50;;;;;;5068669;28;20128;-28
2023/09/27 03:15:10;;;;;;;6.07;4.95;;;19.20;87.20;;;;;;5072993;28;20048;-28
2023/09/27 03:17:37;;;;;;;6.38;5.10;;;;;;;;;;5073584;28;20048;-30
2023/09/27 03:20:07;;;;;;;7.05;4.90;;;20.20;87.80;;;;;;5073888;28;20052;-28
2023/09/27 03:22:34;;;;;;;5.82;5.00;;;20.10;88.00;;;;;;5073620;28;20533;-28
2023/09/27 03:25:02;;;;;;;5.80;4.88;;;19.40;68.30;;;;;;5073408;28;20131;-27
2023/09/27 03:27:29;;;;;;;6.07;4.57;;;;;;;;;;5056676;28;20079;-31
2023/09/27 03:29:56;;;;;;;6.47;5.00;;;19.30;87.40;;;;;;5053530;28;20061;-28
2023/09/27 03:32:23;;;;;;;5.60;5.07;;;;;;;;;;5053671;28;20087;-32
2023/09/27 03:34:51;;;;;;;5.57;4.90;;;19.40;68.30;;;;;;5053384;28;20132;-28
2023/09/27 03:37:18;;;;;;;5.07;4.57;;;18.20;86.50;;;;;;5070317;28;20131;-28
2023/09/27 03:39:45;;;;;;;6.15;5.18;;;19.90;87.90;;;;;;5073075;28;20165;-27
2023/09/27 03:42:13;;;;;;;5.28;4.68;;;19.50;68.80;;;;;;5073168;28;20468;-28
2023/09/27 03:44:40;;;;;;;5.63;5.05;;;;;;;;;;5073255;28;20049;-28
2023/09/27 03:47:06;;;;;;;5.43;4.90;;;19.00;87.50;;;;;;5073268;28;20120;-27
2023/09/27 03:49:34;;;;;;;5.80;5.20;;;;;;;;;;5072587;28;20489;-30
2023/09/27 03:52:01;;;;;;;5.70;5.10;;;19.40;87.30;;;;;;5073162;28;20048;-28
2023/09/27 03:54:28;;;;;;;5.68;5.07;;;19.40;68.20;;;;;;5059945;28;20137;-30
2023/09/27 03:56:55;;;;;;;5.78;5.00;;;19.20;80.20;;;;;;5052654;28;20140;-29
2023/09/27 03:59:23;;;;;;;5.93;5.30;;;19.40;68.30;;;;;;5053001;28;20083;-29
2023/09/27 04:01:51;;;;;;;6.38;5.32;;;;;;;;;;5052835;28;20136;-31
2023/09/27 04:04:18;;;;;;;5.28;4.78;;;;;;;;;;5057235;28;20079;-29
2023/09/27 04:06:45;;;;;;;5.80;5.20;;;19.00;84.00;;;;;;5072235;28;20136;-29
2023/09/27 04:09:12;;;;;;;5.75;5.15;;;19.50;87.60;;;;;;5067664;28;20123;-28
2023/09/27 04:11:39;;;;;;;6.55;5.53;;;19.00;87.10;;;;;;5052287;28;20494;-28
2023/09/27 04:14:06;;;;;;;5.85;5.15;;;19.50;87.70;;;;;;5052759;28;20057;-28
2023/09/27 04:16:34;;;;;;;5.90;5.10;;;19.00;80.60;;;;;;5051834;28;20045;-29
2023/09/27 04:19:01;;;;;;;7.35;5.65;;;19.00;79.20;;;;;;5052376;28;20128;-28
2023/09/27 04:21:28;;;;;;;7.00;5.75;;;;;;;;;;5061169;28;20128;-28
2023/09/27 04:23:55;;;;;;;6.05;5.40;;;18.10;85.80;;;;;;5072329;28;20066;-27
2023/09/27 04:26:23;;;;;;;5.50;4.95;;;19.20;87.70;;;;;;5072430;28;20048;-28
2023/09/27 04:28:50;;;;;;;6.40;5.22;;;19.70;87.90;;;;;;5072309;28;20060;-28
2023/09/27 04:31:17;;;;;;;5.43;4.85;;;;;;;;;;5061941;28;20577;-29
2023/09/27 04:33:47;;;;;;;6.47;5.32;;;19.60;74.00;;;;;;5072322;28;20048;-29
2023/09/27 04:36:16;;;;;;;6.55;4.80;;;19.50;87.80;;;;;;5067708;28;20048;-27
2023/09/27 04:38:44;;;;;;;5.78;5.00;;;19.20;76.60;;;;;;5063500;28;20120;-29
2023/09/27 04:41:11;;;;;;;6.28;5.25;;;18.90;87.50;;;;;;5063705;28;20045;-28
2023/09/27 04:43:37;;;;;;;5.50;4.70;;;19.30;83.80;;;;;;5061057;28;20145;-30
2023/09/27 04:46:04;;;;;;;5.63;4.93;;;19.70;87.90;;;;;;5060668;28;20458;-30
2023/09/27 04:48:32;;;;;;;5.75;5.15;;;;;;;;;;5057986;28;20095;-29
2023/09/27 04:51:02;;;;;;;5.53;5.00;;;19.30;68.30;;;;;;5062298;28;20405;-31
2023/09/27 04:53:30;;;;;;;6.38;4.97;;;19.00;87.60;;;;;;5061261;28;20124;-27
2023/09/27 04:55:56;;;;;;;6.07;5.20;;;19.70;87.50;;;;;;5061505;28;20052;-28
2023/09/27 04:58:23;;;;;;;6.60;5.28;;;;;;;;;;5061637;28;20512;-29
2023/09/27 05:00:50;;;;;;;6.03;5.20;;;20.30;88.20;;;;;;5058368;28;20170;-28
2023/09/27 05:03:17;;;;;;;6.03;5.15;;;19.20;87.70;;;;;;5058505;28;20123;-28
2023/09/27 05:05:44;;;;;;;5.95;5.20;;;;;;;;;;5060318;28;20580;-32
2023/09/27 05:08:12;;;;;;;6.18;4.82;;;19.50;87.20;;;;;;5059606;28;20444;-28
2023/09/27 05:10:39;;;;;;;5.45;4.72;;;;;;;;;;5060733;28;20082;-30
2023/09/27 05:13:06;;;;;;;5.57;4.97;;;;;;;;;;5062520;28;20082;-31
2023/09/27 05:15:33;;;;;;;5.63;4.85;;;19.30;87.20;;;;;;5060094;28;20131;-33
2023/09/27 05:18:00;;;;;;;5.45;4.80;;;19.10;87.20;;;;;;5059232;28;20050;-37
2023/09/27 05:20:28;;;;;;;5.90;5.15;;;;;;;;;;5062315;28;20040;-33
2023/09/27 05:22:54;;;;;;;5.88;5.25;;;19.40;71.90;;;;;;5061454;28;20041;-34
2023/09/27 05:25:23;;;;;;;6.28;5.05;;;19.10;87.60;;;;;;5066006;28;20044;-36
2023/09/27 05:27:50;;;;;;;5.32;4.82;;;19.50;87.30;;;;;;5072386;28;20127;-33
2023/09/27 05:30:20;;;;;;;6.82;5.40;;;;;;;;;;5074986;28;20132;-34
2023/09/27 05:32:47;;;;;;;6.90;5.50;;;;;;;;;;5075529;28;20469;-31
2023/09/27 05:35:14;;;;;;;5.40;4.80;;;19.30;87.60;;;;;;5075895;28;20076;-34
2023/09/27 05:37:42;;;;;;;6.07;5.28;;;;;;;;;;5075057;28;20577;-32
2023/09/27 05:40:10;;;;;;;6.55;5.25;;;18.30;86.80;;;;;;5075571;28;20044;-36
2023/09/27 05:42:38;;;;;;;6.57;5.43;;;19.20;68.00;;;;;;5072361;28;20071;-35
2023/09/27 05:45:07;;;;;;;6.50;5.68;;;19.90;74.70;;;;;;5071688;28;20128;-34
2023/09/27 05:47:34;;;;;;;6.20;5.40;;;18.80;87.40;;;;;;5075720;28;20048;-33
2023/09/27 05:50:01;;;;;;;6.53;5.18;;;;;;;;;;5075134;28;20151;-32
2023/09/27 05:52:28;;;;;;;5.40;4.90;;;20.00;87.60;;;;;;5054685;28;20132;-34
2023/09/27 05:54:56;;;;;;;6.40;5.50;;;;;;;;;;5055168;28;20476;-32
2023/09/27 05:57:23;;;;;;;6.15;5.35;;;18.50;87.00;;;;;;5060622;28;20101;-33
2023/09/27 05:59:51;;;;;;;5.28;4.70;;;19.40;87.70;;;;;;5075039;28;20048;-36
2023/09/27 06:02:20;;;;;;;6.50;5.75;;;;;;;;;;5075303;28;20052;-35
2023/09/27 06:04:47;;;;;;;5.78;5.18;;;19.40;87.30;;;;;;5075280;28;20132;-37
2023/09/27 06:07:15;;;;;;;6.35;5.43;;;;;;;;;;5075368;28;20132;-32
2023/09/27 06:09:42;;;;;;;6.05;4.90;;;;;;;;;;5074663;28;20053;-31
2023/09/27 06:12:10;;;;;;;6.05;5.05;;;18.60;87.20;;;;;;5074791;28;20131;-36
2023/09/27 06:14:36;;;;;;;6.13;5.15;;;19.50;87.30;;;;;;5060895;28;20048;-34
2023/09/27 06:17:05;;;;;;;5.80;5.20;;;19.60;87.80;;;;;;5073384;28;20127;-33
2023/09/27 06:19:32;;;;;;;5.60;5.00;;;19.90;81.70;;;;;;5074745;28;20048;-32
2023/09/27 06:21:59;;;;;;;5.65;5.00;;;19.50;87.60;;;;;;5074920;28;20492;-28
2023/09/27 06:24:26;;;;;;;7.07;4.70;;;;;;;;;;5070905;28;20132;-28
2023/09/27 06:26:53;;;;;;;6.20;5.13;;;19.50;87.50;;;;;;5054748;28;20060;-28
2023/09/27 06:29:20;;;;;;;6.13;5.00;;;;;;;;;;5053971;28;20629;-35
2023/09/27 06:31:47;;;;;;;15.85;5.10;;;20.30;70.40;;;;;;5054002;28;20102;-32
2023/09/27 06:34:15;;;;;;;7.30;4.70;;;20.60;87.90;;;;;;5059846;28;20133;-36
2023/09/27 06:36:42;;;;;;;5.68;4.80;;;19.80;87.40;;;;;;5062041;28;20548;-34
2023/09/27 06:39:12;;;;;;;5.93;4.95;;;19.00;75.00;;;;;;5055914;28;20068;-35
2023/09/27 06:41:40;;;;;;;5.82;4.55;;;19.50;72.00;;;;;;5054582;28;20056;-33
2023/09/27 06:44:07;;;;;;;5.30;4.57;;;19.60;67.70;;;;;;5061605;28;20053;-32
2023/09/27 06:46:34;;;;;;;5.05;4.50;;;20.50;87.40;;;;;;5065306;28;20414;-32
2023/09/27 06:49:01;;;;;;;5.72;4.75;;;;;;;;;;5070579;28;20120;-32
2023/09/27 06:51:29;;;;;;;5.18;4.57;;;19.70;67.70;;;;;;5062990;28;20045;-32
2023/09/27 06:53:56;;;;;;;5.35;4.65;;;;;;;;;;5063268;28;20049;-37
2023/09/27 06:56:23;;;;;;;7.75;4.40;;;;;;;;;;5063071;28;20128;-31
2023/09/27 06:58:51;;;;;;;6.80;4.85;;;18.80;86.00;;;;;;5064480;28;20050;-33
2023/09/27 07:01:18;;;;;;;9.65;4.95;;;20.90;87.10;;;;;;5062538;28;20045;-34
2023/09/27 07:03:48;;;;;;;5.53;4.85;;;;;;;;;;5062048;28;20123;-33
2023/09/27 07:06:14;;;;;;;5.20;4.70;;;19.80;87.00;;;;;;5053278;28;20060;-36
2023/09/27 07:08:46;;;;;;;6.60;4.90;;;19.80;67.50;;;;;;5053310;28;20128;-33
2023/09/27 07:11:14;;;;;;;7.97;5.20;;;;;;;;;;5064349;28;20076;-32
2023/09/27 07:13:41;;;;;;;5.78;4.70;;;19.80;86.50;;;;;;5063713;28;20045;-35
2023/09/27 07:16:20;;;;;;;6.57;4.85;;;19.00;74.50;;;;;;5062349;28;20053;-34
2023/09/27 07:18:47;;;;;;;5.53;4.57;;;20.30;74.80;;;;;;5061013;28;20095;-36
2023/09/27 07:21:14;;;;;;;5.30;4.65;;;20.80;84.80;;;;;;5064914;28;20183;-34
2023/09/27 07:23:43;;;;;;;6.18;4.82;;;18.90;86.40;;;;;;5063257;28;20468;-36
2023/09/27 07:26:10;;;;;;;7.00;4.82;;;;;;;;;;5064134;28;20712;-32
2023/09/27 07:28:37;;;;;;;7.00;4.57;;;19.50;86.30;;;;;;5058528;28;20102;-29
2023/09/27 07:31:04;;;;;;;5.35;4.72;;;20.40;87.20;;;;;;5053291;28;20049;-28
2023/09/27 07:33:31;;;;;;;6.75;4.78;;;18.60;85.80;;;;;;5053396;28;20053;-28
2023/09/27 07:35:58;;;;;;;5.57;4.65;;;20.80;87.10;;;;;;5056281;28;20131;-28
2023/09/27 07:38:25;;;;;;;7.47;4.78;;;19.90;86.50;;;;;;5072384;28;20048;-28
2023/09/27 07:40:53;;;;;;;5.32;4.15;;;19.20;86.60;;;;;;5073500;28;20132;-29
2023/09/27 07:43:20;;;;;;;5.85;4.18;;;20.10;86.80;;;;;;5073491;28;20131;-27
2023/09/27 07:45:47;;;;;;;5.13;4.40;;;;;;;;;;5072854;28;20048;-29
2023/09/27 07:48:14;;;;;;;7.00;4.15;;;19.90;86.50;;;;;;5073453;28;20162;-27
2023/09/27 07:50:41;;;;;;;5.38;4.70;;;18.80;85.90;;;;;;5065650;28;20053;-29
2023/09/27 07:53:08;;;;;;;5.20;4.18;;;19.40;86.50;;;;;;5052890;28;20049;-29
2023/09/27 07:55:43;;;;;;;4.88;4.30;;;19.40;78.20;;;;;;5052987;28;20056;-29
2023/09/27 07:58:12;;;;;;;6.75;4.50;;;20.40;86.90;;;;;;5052784;28;20091;-29
2023/09/27 08:00:40;;;;;;;6.13;4.75;;;;;;;;;;5052652;28;20072;-29
2023/09/27 08:03:07;;;;;;;4.95;4.40;;;;;;;;;;5053073;28;20118;-29
2023/09/27 08:05:42;;;;;;;4.65;4.10;;;19.00;86.20;;;;;;5067880;28;20047;-30
2023/09/27 08:08:09;;;;;;;4.88;4.30;;;20.60;87.20;;;;;;5068454;28;20072;-28
2023/09/27 08:10:36;;;;;;;5.45;4.40;;;19.90;70.00;;;;;;5072466;28;20106;-30
2023/09/27 08:13:04;;;;;;;5.78;4.30;;;19.00;86.20;;;;;;5072435;28;20122;-28
2023/09/27 08:15:32;;;;;;;5.45;4.40;;;20.30;86.90;;;;;;5073015;28;20051;-28
2023/09/27 08:18:00;;;;;;;4.63;4.10;;;;;;;;;;5072315;28;20049;-32
2023/09/27 08:20:26;;;;;;;5.43;4.05;;;19.50;86.60;;;;;;5072357;28;20143;-34
2023/09/27 08:22:53;;;;;;;4.97;4.05;;;19.60;86.40;;;;;;5068498;28;20072;-35
2023/09/27 08:25:20;;;;;;;5.78;4.82;;;19.60;86.30;;;;;;5072650;28;20074;-34
2023/09/27 08:27:50;;;;;;;5.00;4.10;;;19.80;86.80;;;;;;5070755;28;20084;-34
2023/09/27 08:30:17;;;;;;;5.47;4.18;;;19.60;86.30;;;;;;5062528;28;20451;-35
2023/09/27 08:32:45;;;;;;;4.65;4.18;;;19.90;67.60;;;;;;5060893;28;20132;-32
2023/09/27 08:35:12;;;;;;;4.60;3.88;;;;;;;;;;5063221;28;20133;-32
2023/09/27 08:37:39;;;;;;;4.18;3.78;;;20.90;70.10;;;;;;5060438;28;20132;-35
2023/09/27 08:40:07;;;;;;;4.78;4.10;;;19.90;67.60;;;;;;5058846;28;20124;-31
2023/09/27 08:42:34;;;;;;;4.50;3.95;;;;;;;;;;5062321;28;20056;-33
2023/09/27 08:45:02;;;;;;;4.90;4.13;;;19.80;86.30;;;;;;5062530;28;20049;-33
2023/09/27 08:47:29;;;;;;;5.30;4.10;;;19.50;86.50;;;;;;5060680;28;20548;-37
2023/09/27 08:49:58;;;;;;;4.47;3.88;;;19.90;67.60;;;;;;5061509;28;20120;-32
2023/09/27 08:52:25;;;;;;;4.72;3.78;;;;;;;;;;5062675;28;20040;-31
2023/09/27 08:54:52;;;;;;;4.97;4.10;;;19.90;67.60;;;;;;5057952;28;20459;-34
2023/09/27 08:57:19;;;;;;;4.43;3.90;;;19.90;86.60;;;;;;5054905;28;20063;-34
2023/09/27 08:59:46;;;;;;;4.03;3.60;;;20.20;86.50;;;;;;5051845;28;20081;-37
2023/09/27 09:02:13;;;;;;;5.00;4.20;;;20.40;70.50;;;;;;5051817;28;20132;-34
2023/09/27 09:04:40;;;;;;;5.05;3.70;;;19.00;85.80;;;;;;5059332;28;20048;-35
2023/09/27 09:07:09;;;;;;;4.30;3.80;;;19.90;67.60;;;;;;5071844;28;20143;-32
2023/09/27 09:09:36;;;;;;;4.10;3.58;;;18.70;85.70;;;;;;5071945;28;20123;-34
2023/09/27 09:12:08;;;;;;;4.13;3.50;;;19.90;67.60;;;;;;5062341;28;20156;-34
2023/09/27 09:14:42;;;;;;;6.88;4.03;;;20.50;87.00;;;;;;5070955;28;20066;-35
2023/09/27 09:17:10;;;;;;;4.43;3.70;;;;;;;;;;5064501;28;20060;-34
2023/09/27 09:19:38;;;;;;;4.95;3.58;;;;;;;;;;5062437;28;20114;-31
2023/09/27 09:22:08;;;;;;;4.72;3.70;;;19.80;67.50;;;;;;5070021;28;20502;-32
2023/09/27 09:24:36;;;;;;;4.88;3.92;;;19.80;67.50;;;;;;5069316;28;20048;-35
2023/09/27 09:27:08;;;;;;;4.85;3.95;;;19.70;80.10;;;;;;5065784;28;20135;-36
2023/09/27 09:29:51;;;;;;;5.05;3.80;;;20.20;85.50;;;;;;5067825;28;20049;-36
2023/09/27 09:32:19;;;;;;;4.45;3.65;;;20.30;86.80;;;;;;5071466;28;20053;-35
2023/09/27 09:34:47;;;;;;;4.20;3.50;;;;;;;;;;5071736;28;20075;-34
2023/09/27 09:37:18;;;;;;;5.05;3.72;;;20.90;87.10;;;;;;5070049;28;20128;-36
2023/09/27 09:39:46;;;;;;;4.95;3.35;;;19.80;67.50;;;;;;5071257;28;20048;-35
2023/09/27 09:42:14;;;;;;;4.53;3.50;;;19.90;86.30;;;;;;5071623;28;20106;-37
2023/09/27 09:44:41;;;;;;;3.70;3.00;;;19.90;86.60;;;;;;5062032;28;20056;-34
2023/09/27 09:47:11;;;;;;;4.10;3.40;;;19.60;86.50;;;;;;5051571;28;20366;-34
2023/09/27 09:49:38;;;;;;;4.32;3.28;;;;;;;;;;5051277;28;20501;-36
2023/09/27 09:52:05;;;;;;;5.63;3.20;;;20.10;67.90;;;;;;5051625;28;20076;-35
2023/09/27 09:54:37;;;;;;;5.03;3.63;;;20.20;86.50;;;;;;5050979;28;20478;-33
2023/09/27 09:57:05;;;;;;;5.15;3.38;;;20.50;87.00;;;;;;5051278;28;20494;-37
2023/09/27 09:59:45;;;;;;;4.25;3.28;;;19.80;67.50;;;;;;5059427;28;20486;-33
2023/09/27 10:02:17;;;;;;;3.72;3.33;;;19.80;67.50;;;;;;5054355;28;20459;-34
2023/09/27 10:04:45;;;;;;;4.18;3.13;;;;;;;;;;5061708;28;20128;-36
2023/09/27 10:07:13;;;;;;;4.85;3.22;;;20.20;86.60;;;;;;5070201;28;20040;-35
2023/09/27 10:09:39;;;;;;;5.95;3.40;;;20.40;86.70;;;;;;5070099;28;20131;-34
2023/09/27 10:12:07;;;;;;;4.28;3.28;;;19.50;70.30;;;;;;5071263;28;20131;-35
2023/09/27 10:14:34;;;;;;;4.60;3.10;;;18.80;76.40;;;;;;5071703;28;20136;-34
2023/09/27 10:17:01;;;;;;;3.80;2.95;;;20.20;79.70;;;;;;5067338;28;20059;-35
2023/09/27 10:19:28;;;;;;;4.75;3.20;;;;;;;;;;5074603;28;20076;-34
2023/09/27 10:22:04;;;;;;;5.22;3.03;;;19.50;74.40;;;;;;5074820;28;20052;-34
2023/09/27 10:24:30;;;;;;;3.70;2.78;;;20.10;86.30;;;;;;5075032;28;20052;-34
2023/09/27 10:26:57;;;;;;;5.18;3.03;;;;;;;;;;5074619;28;20048;-32
2023/09/27 10:29:27;;;;;;;4.80;2.53;;;20.10;85.90;;;;;;5074355;28;20123;-35
2023/09/27 10:32:21;;;;;;;3.72;2.58;;;19.70;67.20;;;;;;5074457;28;20413;-35
2023/09/27 10:34:48;;;;;;;3.67;2.60;;;20.20;67.20;;;;;;5053952;28;20049;-33
2023/09/27 10:37:16;;;;;;;4.95;2.88;;;19.10;85.20;;;;;;5066145;28;20059;-34
2023/09/27 10:39:43;;;;;;;3.47;2.60;;;;;;;;;;5074094;28;20051;-33
2023/09/27 10:42:10;;;;;;;3.05;2.67;;;20.00;73.10;;;;;;5074488;28;20076;-33
2023/09/27 10:44:43;;;;;;;3.05;2.25;;;20.20;86.40;;;;;;5073990;28;20563;-34
2023/09/27 10:47:12;;;;;;;3.10;2.67;;;;;;;;;;5074267;28;20519;-32
2023/09/27 10:49:38;;;;;;;5.47;2.85;;;19.80;85.00;;;;;;5068542;28;20098;-37
2023/09/27 10:52:15;;;;;;;3.83;2.70;;;20.50;85.70;;;;;;5074539;28;20057;-33
2023/09/27 10:54:42;;;;;;;3.45;2.53;;;;;;;;;;5065312;28;20045;-35
2023/09/27 10:57:09;;;;;;;3.38;2.30;;;20.30;66.90;;;;;;5061891;28;20047;-28
2023/09/27 10:59:36;;;;;;;6.28;2.70;;;;;;;;;;5061019;28;20506;-30
2023/09/27 11:02:06;;;;;;;2.90;2.20;;;20.30;66.90;;;;;;5065377;28;20123;-29
2023/09/27 11:04:35;;;;;;;4.30;2.45;;;19.90;84.80;;;;;;5056200;28;20056;-28
2023/09/27 11:07:03;;;;;;;4.45;2.58;;;20.30;66.80;;;;;;5061433;28;20045;-30
2023/09/27 11:09:30;;;;;;;4.15;2.33;;;20.00;85.50;;;;;;5064360;28;20056;-28
2023/09/27 11:11:57;;;;;;;3.80;2.38;;;;;;;;;;5068020;28;20140;-31
2023/09/27 11:14:28;;;;;;;3.03;2.10;;;20.30;66.80;;;;;;5062434;28;20504;-28
2023/09/27 11:16:54;;;;;;;3.10;2.30;;;;;;;;;;5066128;28;20128;-28
2023/09/27 11:19:29;;;;;;;2.95;2.38;;;20.30;66.70;;;;;;5062585;28;20045;-29
2023/09/27 11:21:56;;;;;;;4.03;2.40;;;20.30;85.60;;;;;;5054654;28;20124;-28
2023/09/27 11:24:24;;;;;;;2.90;2.30;;;;;;;;;;5053352;28;20087;-29
2023/09/27 11:26:50;;;;;;;3.10;2.20;;;20.20;85.20;;;;;;5056046;28;20393;-29
2023/09/27 11:29:17;;;;;;;3.47;1.90;;;19.30;72.10;;;;;;5058923;28;20123;-29
2023/09/27 11:31:44;;;;;;;3.03;2.30;;;20.40;85.60;;;;;;5053553;28;20140;-28
2023/09/27 11:34:12;;;;;;;2.75;2.28;;;20.40;79.00;;;;;;5053398;28;20128;-29
2023/09/27 11:36:44;;;;;;;3.22;2.20;;;20.60;85.80;;;;;;5059816;28;20667;-28
2023/09/27 11:39:13;;;;;;;2.90;2.10;;;20.30;85.70;;;;;;5057932;28;20141;-28
2023/09/27 11:41:40;;;;;;;3.10;2.20;;;19.80;85.10;;;;;;5053161;28;20048;-35
2023/09/27 11:44:17;;;;;;;2.85;2.17;;;20.20;85.80;;;;;;5053218;28;20129;-35
2023/09/27 11:46:44;;;;;;;2.92;2.05;;;20.40;73.20;;;;;;5053509;28;20045;-34
2023/09/27 11:49:10;;;;;;;2.63;2.10;;;20.40;85.50;;;;;;5073040;28;20409;-34
2023/09/27 11:51:37;;;;;;;3.58;2.20;;;20.10;85.50;;;;;;5073071;28;20127;-38
2023/09/27 11:54:06;;;;;;;2.47;2.03;;;20.80;78.30;;;;;;5069972;28;20048;-35
2023/09/27 11:56:34;;;;;;;4.63;2.25;;;21.40;86.10;;;;;;5071155;28;20105;-35
2023/09/27 11:59:00;;;;;;;3.55;2.28;;;20.40;70.60;;;;;;5072699;28;20135;-31
2023/09/27 12:01:27;;;;;;;3.80;2.30;;;20.20;85.50;;;;;;5072871;28;20132;-34
2023/09/27 12:03:54;;;;;;;5.32;2.50;;;;;;;;;;5072740;28;20135;-34
2023/09/27 12:06:21;;;;;;;3.08;2.20;;;20.60;85.40;;;;;;5072395;28;20131;-34
2023/09/27 12:08:49;;;;;;;2.85;2.13;;;;;;;;;;5073248;28;20049;-32
2023/09/27 12:11:17;;;;;;;2.47;2.03;;;20.90;67.80;;;;;;5066619;28;20041;-28
2023/09/27 12:13:43;;;;;;;4.78;2.25;;;20.40;85.30;;;;;;5061039;28;20124;-28
2023/09/27 12:16:11;;;;;;;3.03;2.20;;;;;;;;;;5056254;28;20124;-28
2023/09/27 12:18:38;;;;;;;3.00;2.20;;;19.30;84.80;;;;;;5062969;28;20060;-30
2023/09/27 12:21:05;;;;;;;2.67;2.15;;;;;;;;;;5060536;28;20563;-29
2023/09/27 12:23:32;;;;;;;4.07;2.20;;;19.20;84.60;;;;;;5059584;28;20462;-29
2023/09/27 12:25:58;;;;;;;3.35;2.00;;;20.10;85.40;;;;;;5059470;28;20099;-29
2023/09/27 12:28:26;;;;;;;4.43;2.03;;;20.30;79.30;;;;;;5060904;28;20132;-29
2023/09/27 12:30:53;;;;;;;3.80;2.53;;;20.90;79.10;;;;;;5061379;28;20056;-30
2023/09/27 12:33:20;;;;;;;3.28;2.10;;;20.10;85.40;;;;;;5063241;28;20492;-29
2023/09/27 12:35:49;;;;;;;2.88;2.28;;;;;;;;;;5056907;28;20702;-28
2023/09/27 12:38:16;;;;;;;2.83;2.08;;;20.10;85.40;;;;;;5059379;28;20472;-29
2023/09/27 12:40:43;;;;;;;2.67;2.00;;;20.40;75.00;;;;;;5062536;28;20131;-29
2023/09/27 12:43:10;;;;;;;3.28;2.22;;;20.30;71.90;;;;;;5060585;28;20123;-30
2023/09/27 12:45:39;;;;;;;2.13;1.90;;;20.80;86.40;;;;;;5058016;28;20572;-28
2023/09/27 12:48:06;;;;;;;3.17;2.13;;;20.60;85.40;;;;;;5062593;28;20127;-28
2023/09/27 12:50:34;;;;;;;2.75;2.05;;;;;;;;;;5061831;28;20053;-30
2023/09/27 12:53:02;;;;;;;2.78;1.95;;;19.20;84.70;;;;;;5060683;28;20131;-29
2023/09/27 12:55:29;;;;;;;2.28;1.85;;;20.10;85.20;;;;;;5061377;28;20459;-28
2023/09/27 12:57:56;;;;;;;3.10;2.20;;;20.40;69.60;;;;;;5063205;28;20123;-30
2023/09/27 13:00:23;;;;;;;2.33;1.70;;;;;;;;;;5061593;28;20552;-29
2023/09/27 13:02:51;;;;;;;2.22;1.90;;;22.90;68.30;;;;;;5061070;28;20058;-30
2023/09/27 13:05:18;;;;;;;2.67;1.92;;;21.20;70.30;;;;;;5061548;28;20080;-29
2023/09/27 13:07:45;;;;;;;2.13;1.75;;;20.40;85.40;;;;;;5060595;28;20127;-28
2023/09/27 13:10:11;;;;;;;3.08;2.00;;;20.20;86.10;;;;;;5062898;28;20573;-27
2023/09/27 13:12:38;;;;;;;2.83;2.08;;;20.00;70.90;;;;;;5063085;28;20053;-29
2023/09/27 13:15:06;;;;;;;2.97;2.20;;;20.80;86.30;;;;;;5058858;28;20049;-30